Time;durP1;ratioP1;P1;durP2;ratioP2;P2;SDS_P1;SDS_P2;PMS_P1;PMS_P2;Temp;Humidity;BMP_temperature;BMP_pressure;BME280_temperature;BME280_humidity;BME280_pressure;Samples;Min_cycle;Max_cycle;Signal;HPM_P1;HPM_P2
2022/11/22 00:01:59;;;;;;;20.98;6.80;;;14.00;99.90;;;;;;4992562;28;20045;-71
2022/11/22 00:05:03;;;;;;;15.13;5.13;;;13.70;99.90;;;;;;4992429;28;20037;-69
2022/11/22 00:08:07;;;;;;;10.50;3.60;;;14.00;99.90;;;;;;4992144;28;20045;-71
2022/11/22 00:11:11;;;;;;;20.67;4.35;;;14.00;99.90;;;;;;4992126;28;20036;-72
2022/11/22 00:14:15;;;;;;;18.88;4.60;;;14.00;99.90;;;;;;4991982;28;20049;-72
2022/11/22 00:17:18;;;;;;;12.18;3.70;;;14.00;99.90;;;;;;4992240;28;20057;-70
2022/11/22 00:20:23;;;;;;;13.20;3.90;;;14.00;99.90;;;;;;4992077;28;20038;-70
2022/11/22 00:23:26;;;;;;;11.07;3.95;;;14.00;99.90;;;;;;4992249;28;20053;-69
2022/11/22 00:26:30;;;;;;;18.33;3.92;;;14.10;99.90;;;;;;4992307;28;20049;-71
2022/11/22 00:29:34;;;;;;;13.85;4.63;;;14.00;99.90;;;;;;4992156;28;20049;-70
2022/11/22 00:32:38;;;;;;;11.35;4.35;;;14.10;99.90;;;;;;4992056;28;20053;-69
2022/11/22 00:35:45;;;;;;;12.13;4.38;;;14.10;99.90;;;;;;4991783;28;20516;-69
2022/11/22 00:38:49;;;;;;;11.10;4.00;;;14.00;99.90;;;;;;4991707;28;20045;-70
2022/11/22 00:41:53;;;;;;;10.00;2.75;;;14.00;99.90;;;;;;4991858;28;20053;-70
2022/11/22 00:44:57;;;;;;;8.75;2.08;;;14.00;99.90;;;;;;4991928;28;20049;-69
2022/11/22 00:48:01;;;;;;;6.63;1.20;;;14.10;99.90;;;;;;4991985;28;20057;-69
2022/11/22 00:51:05;;;;;;;7.85;1.13;;;14.20;99.90;;;;;;4991973;28;20061;-69
2022/11/22 00:54:09;;;;;;;4.35;1.23;;;14.40;99.90;;;;;;4991959;28;20050;-69
2022/11/22 00:57:13;;;;;;;13.35;1.63;;;14.50;99.90;;;;;;4991638;28;20054;-69
2022/11/22 01:00:17;;;;;;;8.27;1.90;;;14.70;99.90;;;;;;4991893;28;20045;-70
2022/11/22 01:03:20;;;;;;;7.95;1.42;;;14.90;99.90;;;;;;4993172;28;20057;-70
2022/11/22 01:06:24;;;;;;;12.75;2.13;;;14.90;99.90;;;;;;4995744;28;20524;-70
2022/11/22 01:09:28;;;;;;;10.95;1.85;;;15.00;99.90;;;;;;4995446;28;20057;-70
2022/11/22 01:12:32;;;;;;;10.35;1.45;;;15.10;99.90;;;;;;4995575;28;20037;-70
2022/11/22 01:15:37;;;;;;;7.00;1.25;;;15.10;99.90;;;;;;4995398;28;20054;-70
2022/11/22 01:18:41;;;;;;;8.52;2.10;;;15.20;99.90;;;;;;4995248;28;20065;-71
2022/11/22 01:21:45;;;;;;;8.85;2.13;;;15.10;99.90;;;;;;5005651;28;20493;-70
2022/11/22 01:24:49;;;;;;;10.25;2.47;;;14.90;99.90;;;;;;4995513;28;20045;-71
2022/11/22 01:27:53;;;;;;;9.25;1.60;;;14.80;99.90;;;;;;4995306;28;20049;-70
2022/11/22 01:30:57;;;;;;;11.95;1.83;;;14.70;99.90;;;;;;4994918;28;20402;-70
2022/11/22 01:34:03;;;;;;;17.25;2.42;;;14.80;99.90;;;;;;4995032;28;20053;-71
2022/11/22 01:37:07;;;;;;;20.02;2.92;;;14.90;99.90;;;;;;4995224;28;20049;-71
2022/11/22 01:40:12;;;;;;;15.68;2.22;;;15.00;99.90;;;;;;4995045;28;20053;-70
2022/11/22 01:43:22;;;;;;;23.27;3.25;;;15.10;99.90;;;;;;4994180;28;20054;-71
2022/11/22 01:46:36;;;;;;;23.58;3.80;;;15.20;99.90;;;;;;4994957;28;20525;-71
2022/11/22 01:49:50;;;;;;;28.67;3.08;;;15.30;99.90;;;;;;4995078;28;20036;-70
2022/11/22 01:52:58;;;;;;;26.50;3.28;;;15.40;99.90;;;;;;4994642;28;20086;-69
2022/11/22 01:56:06;;;;;;;32.67;4.22;;;15.40;99.90;;;;;;4994702;28;20173;-70
2022/11/22 01:59:15;;;;;;;18.73;2.50;;;15.40;99.90;;;;;;4994596;28;20055;-70
2022/11/22 02:02:19;;;;;;;26.77;3.00;;;15.30;99.90;;;;;;4994290;28;20053;-71
2022/11/22 02:05:29;;;;;;;24.98;3.60;;;15.30;99.90;;;;;;4994367;28;20045;-71
2022/11/22 02:08:42;;;;;;;23.35;2.40;;;15.20;99.90;;;;;;4994639;28;20050;-71
2022/11/22 02:11:49;;;;;;;21.65;2.67;;;15.20;99.90;;;;;;4994323;28;20045;-71
2022/11/22 02:14:54;;;;;;;19.73;3.20;;;15.20;99.90;;;;;;4993690;28;20045;-71
2022/11/22 02:17:58;;;;;;;21.85;3.15;;;15.10;99.90;;;;;;4994396;28;20049;-70
2022/11/22 02:21:03;;;;;;;23.95;2.83;;;15.10;99.90;;;;;;4994370;28;20053;-71
2022/11/22 02:24:35;;;;;;;16.40;2.28;;;15.20;99.90;;;;;;4994135;28;20046;-70
2022/11/22 02:27:39;;;;;;;21.20;3.53;;;15.20;99.90;;;;;;4994075;28;20073;-70
2022/11/22 02:30:43;;;;;;;32.22;4.13;;;15.20;99.90;;;;;;4994006;28;20049;-70
2022/11/22 02:33:47;;;;;;;29.90;4.80;;;15.30;99.90;;;;;;4993864;28;20049;-70
2022/11/22 02:36:53;;;;;;;27.95;3.80;;;15.20;99.90;;;;;;4994018;28;20057;-70
2022/11/22 02:40:03;;;;;;;22.60;2.85;;;15.20;99.90;;;;;;4993756;28;20521;-70
2022/11/22 02:43:12;;;;;;;21.83;2.65;;;15.20;99.90;;;;;;4993682;28;20049;-70
2022/11/22 02:46:19;;;;;;;15.57;2.75;;;15.10;99.90;;;;;;4993611;28;20066;-70
2022/11/22 02:49:24;;;;;;;19.58;2.63;;;15.10;99.90;;;;;;4993689;28;20053;-70
2022/11/22 02:52:28;;;;;;;25.58;2.72;;;15.10;99.90;;;;;;4993503;28;20418;-70
2022/11/22 02:55:32;;;;;;;19.85;4.03;;;15.20;99.90;;;;;;4993443;28;20054;-70
2022/11/22 02:58:36;;;;;;;28.27;3.63;;;15.30;99.90;;;;;;4993835;28;20053;-70
2022/11/22 03:01:42;;;;;;;30.33;3.38;;;15.40;99.90;;;;;;4993675;28;20053;-71
2022/11/22 03:04:46;;;;;;;28.10;3.92;;;15.50;99.90;;;;;;4993577;28;20075;-71
2022/11/22 03:07:50;;;;;;;32.92;3.83;;;15.60;99.90;;;;;;4993241;28;20057;-71
2022/11/22 03:10:57;;;;;;;31.83;3.90;;;15.60;99.90;;;;;;4993481;28;20046;-70
2022/11/22 03:14:01;;;;;;;34.25;4.22;;;15.70;99.90;;;;;;4993126;28;20045;-71
2022/11/22 03:17:05;;;;;;;31.33;3.85;;;15.70;99.90;;;;;;4993129;28;20057;-70
2022/11/22 03:20:09;;;;;;;28.70;5.00;;;15.80;99.90;;;;;;4993290;28;20049;-70
2022/11/22 03:23:14;;;;;;;33.67;4.88;;;15.90;99.90;;;;;;4993124;28;20568;-70
2022/11/22 03:26:18;;;;;;;43.67;4.88;;;15.80;99.90;;;;;;4992452;28;20505;-71
2022/11/22 03:29:22;;;;;;;43.35;5.57;;;15.90;99.90;;;;;;4992936;28;20079;-70
2022/11/22 03:32:25;;;;;;;44.95;5.15;;;16.00;99.90;;;;;;4992570;28;20394;-71
2022/11/22 03:35:29;;;;;;;44.08;5.22;;;16.00;99.90;;;;;;4992646;28;20631;-70
2022/11/22 03:38:34;;;;;;;39.30;5.13;;;16.00;99.90;;;;;;4993025;28;20049;-70
2022/11/22 03:41:38;;;;;;;34.42;4.40;;;16.10;99.90;;;;;;4992670;28;20053;-70
2022/11/22 03:44:42;;;;;;;34.53;4.70;;;16.10;99.90;;;;;;4992592;28;20041;-70
2022/11/22 03:47:46;;;;;;;32.10;4.45;;;16.10;99.90;;;;;;4992635;28;20045;-71
2022/11/22 03:50:50;;;;;;;45.22;5.00;;;16.10;99.90;;;;;;4992729;28;20053;-70
2022/11/22 03:53:54;;;;;;;40.30;5.20;;;16.10;99.90;;;;;;4992462;28;20053;-71
2022/11/22 03:56:58;;;;;;;31.75;4.40;;;16.20;99.90;;;;;;4992285;28;20061;-70
2022/11/22 04:00:04;;;;;;;29.02;4.10;;;16.20;99.90;;;;;;4992438;28;20549;-70
2022/11/22 04:03:16;;;;;;;27.95;4.82;;;16.20;99.90;;;;;;4991944;28;20406;-70
2022/11/22 04:06:20;;;;;;;30.63;4.57;;;16.30;99.90;;;;;;4992152;28;20065;-70
2022/11/22 04:09:24;;;;;;;34.85;5.93;;;16.30;99.90;;;;;;4992266;28;20065;-70
2022/11/22 04:12:29;;;;;;;33.10;5.55;;;16.40;99.90;;;;;;4992189;28;20042;-70
2022/11/22 04:15:33;;;;;;;30.17;3.83;;;16.40;99.90;;;;;;4992179;28;20053;-70
2022/11/22 04:18:37;;;;;;;26.30;4.25;;;16.40;99.90;;;;;;4992285;28;20664;-70
2022/11/22 04:21:40;;;;;;;31.05;4.30;;;16.40;99.90;;;;;;4991852;28;20712;-70
2022/11/22 04:28:23;;;;;;;34.60;4.95;;;16.50;99.90;;;;;;4991482;28;20049;-70
2022/11/22 04:34:49;;;;;;;22.50;4.05;;;16.60;99.90;;;;;;4992120;28;20073;-70
2022/11/22 04:37:53;;;;;;;26.98;4.80;;;16.60;99.90;;;;;;4991492;28;20058;-71
2022/11/22 04:40:57;;;;;;;24.02;3.40;;;16.60;99.90;;;;;;4991530;28;20041;-70
2022/11/22 04:54:08;;;;;;;27.38;4.10;;;17.10;99.90;;;;;;4991957;28;20045;-70
2022/11/22 04:57:12;;;;;;;29.33;3.40;;;17.10;99.90;;;;;;4991424;28;20061;-70
2022/11/22 05:00:17;;;;;;;20.65;4.03;;;17.10;99.90;;;;;;4991519;28;20668;-70
2022/11/22 05:03:20;;;;;;;37.67;5.07;;;17.10;99.90;;;;;;4991320;28;20049;-70
2022/11/22 05:06:25;;;;;;;22.40;3.92;;;17.10;99.90;;;;;;4991797;28;20046;-70
2022/11/22 05:09:29;;;;;;;42.80;5.05;;;17.10;99.90;;;;;;4991626;28;20042;-70
2022/11/22 05:12:32;;;;;;;22.70;3.40;;;17.10;99.90;;;;;;4991476;28;20050;-71
2022/11/22 05:15:36;;;;;;;28.10;3.53;;;17.10;99.90;;;;;;4991726;28;20065;-71
2022/11/22 05:18:41;;;;;;;35.50;3.53;;;17.00;99.90;;;;;;4991613;28;20057;-71
2022/11/22 05:21:45;;;;;;;26.73;4.28;;;17.10;99.90;;;;;;4991414;28;20045;-68
2022/11/22 05:24:49;;;;;;;21.88;3.63;;;17.10;99.90;;;;;;4991260;28;20505;-69
2022/11/22 05:27:54;;;;;;;39.72;4.43;;;17.10;99.90;;;;;;4991464;28;20041;-69
2022/11/22 05:30:58;;;;;;;20.38;3.97;;;17.00;99.90;;;;;;4991332;28;20065;-69
2022/11/22 05:34:02;;;;;;;28.58;3.33;;;17.10;99.90;;;;;;4991589;28;20037;-71
2022/11/22 05:37:06;;;;;;;29.85;4.15;;;17.20;99.80;;;;;;4991231;28;20130;-70
2022/11/22 05:40:11;;;;;;;27.92;4.68;;;17.20;99.50;;;;;;4991347;28;20533;-71
2022/11/22 05:43:14;;;;;;;29.15;4.80;;;17.20;99.90;;;;;;4991132;28;20049;-70
2022/11/22 05:46:20;;;;;;;20.27;3.28;;;17.20;99.30;;;;;;4990961;28;20045;-71
2022/11/22 05:49:24;;;;;;;30.15;3.83;;;17.20;99.20;;;;;;4991363;28;20053;-71
2022/11/22 05:52:28;;;;;;;23.38;3.92;;;17.20;98.80;;;;;;4994745;28;20046;-71
2022/11/22 05:55:33;;;;;;;25.73;3.30;;;17.30;98.20;;;;;;4994612;28;20045;-71
2022/11/22 05:58:37;;;;;;;31.25;3.72;;;17.40;98.10;;;;;;4993784;28;20100;-70
2022/11/22 06:01:41;;;;;;;29.60;3.97;;;17.40;98.40;;;;;;4994666;28;20045;-68
2022/11/22 06:04:45;;;;;;;27.27;3.97;;;17.30;98.50;;;;;;4994678;28;20049;-69
2022/11/22 06:07:49;;;;;;;32.00;6.03;;;17.40;98.80;;;;;;4994240;28;20045;-69
2022/11/22 06:10:52;;;;;;;28.95;4.20;;;17.40;98.90;;;;;;4994392;28;20069;-69
2022/11/22 06:14:03;;;;;;;24.40;3.53;;;17.40;99.30;;;;;;4994139;28;20402;-69
2022/11/22 06:17:08;;;;;;;28.40;3.88;;;17.40;98.70;;;;;;4994187;28;20058;-69
2022/11/22 06:20:12;;;;;;;25.58;4.15;;;17.40;98.60;;;;;;4994256;28;20403;-70
2022/11/22 06:23:16;;;;;;;22.65;3.60;;;17.40;98.40;;;;;;4993344;28;20053;-70
2022/11/22 06:26:22;;;;;;;26.98;4.88;;;17.50;98.40;;;;;;4994297;28;20041;-70
2022/11/22 06:29:27;;;;;;;20.83;4.15;;;17.50;98.40;;;;;;4994257;28;20485;-70
2022/11/22 06:32:33;;;;;;;25.88;3.92;;;17.50;98.50;;;;;;4994165;28;20065;-70
2022/11/22 06:35:38;;;;;;;24.00;3.50;;;17.40;98.60;;;;;;4993772;28;20057;-70
2022/11/22 06:38:43;;;;;;;36.58;4.53;;;17.50;98.10;;;;;;4993960;28;20053;-70
2022/11/22 06:41:47;;;;;;;30.98;4.53;;;17.50;98.20;;;;;;4993589;28;20042;-70
2022/11/22 06:44:51;;;;;;;33.75;4.05;;;17.50;98.20;;;;;;4993654;28;20045;-70
2022/11/22 06:47:57;;;;;;;35.33;4.68;;;17.60;98.30;;;;;;4994105;28;20509;-73
2022/11/22 06:51:08;;;;;;;37.45;4.97;;;17.60;98.50;;;;;;4993851;28;20045;-73
2022/11/22 06:54:12;;;;;;;32.28;5.80;;;17.60;99.70;;;;;;4993568;28;20053;-70
2022/11/22 06:57:16;;;;;;;31.90;4.63;;;17.50;99.90;;;;;;4993598;28;20057;-71
2022/11/22 07:00:20;;;;;;;36.30;4.93;;;17.40;99.90;;;;;;4993432;28;20050;-72
2022/11/22 07:03:25;;;;;;;32.40;4.95;;;17.40;99.90;;;;;;4993745;28;20578;-72
2022/11/22 07:06:37;;;;;;;27.33;3.88;;;17.40;99.90;;;;;;4993352;28;20046;-72
2022/11/22 07:09:41;;;;;;;29.60;4.00;;;17.40;99.90;;;;;;5004006;28;20045;-71
2022/11/22 07:12:45;;;;;;;30.88;4.35;;;17.30;99.90;;;;;;4991584;28;20520;-69
2022/11/22 07:16:00;;;;;;;35.90;4.43;;;17.30;99.90;;;;;;4991771;28;20057;-71
2022/11/22 07:19:05;;;;;;;33.45;4.18;;;17.30;99.90;;;;;;4992419;28;20061;-69
2022/11/22 07:22:09;;;;;;;25.77;4.35;;;17.20;99.90;;;;;;4992602;28;20526;-70
2022/11/22 07:25:14;;;;;;;39.80;5.25;;;17.10;99.90;;;;;;4991644;28;20046;-70
2022/11/22 07:28:18;;;;;;;35.22;5.55;;;17.10;99.90;;;;;;4991308;28;20110;-68
2022/11/22 07:31:21;;;;;;;25.55;4.25;;;17.10;99.90;;;;;;4990494;28;20053;-69
2022/11/22 07:34:25;;;;;;;22.90;3.55;;;17.10;99.90;;;;;;4990464;28;20045;-69
2022/11/22 07:37:32;;;;;;;33.38;4.35;;;17.10;99.90;;;;;;4992320;28;20073;-69
2022/11/22 07:40:36;;;;;;;26.10;3.70;;;17.00;99.90;;;;;;4992179;28;20049;-67
2022/11/22 07:43:44;;;;;;;17.13;2.85;;;17.00;99.90;;;;;;4992774;28;20053;-68
2022/11/22 07:46:48;;;;;;;18.50;3.13;;;17.00;99.90;;;;;;4992578;28;20053;-69
2022/11/22 07:49:52;;;;;;;18.88;3.08;;;16.90;99.90;;;;;;4992451;28;20049;-69
2022/11/22 07:52:57;;;;;;;29.08;4.72;;;16.80;99.90;;;;;;4992481;28;20505;-69
2022/11/22 07:56:03;;;;;;;9.98;2.47;;;16.70;99.90;;;;;;4992258;28;20042;-69
2022/11/22 07:59:07;;;;;;;12.68;2.20;;;16.50;99.90;;;;;;4992191;28;20038;-69
2022/11/22 08:02:11;;;;;;;13.32;2.60;;;16.30;99.90;;;;;;4992272;28;20065;-69
2022/11/22 08:05:16;;;;;;;11.30;2.65;;;16.10;99.90;;;;;;4992589;28;20053;-69
2022/11/22 08:08:20;;;;;;;18.25;3.63;;;15.90;99.90;;;;;;4992257;28;20045;-69
2022/11/22 08:11:24;;;;;;;18.77;3.78;;;15.80;99.90;;;;;;4992255;28;20049;-69
2022/11/22 08:14:28;;;;;;;14.93;3.75;;;15.80;99.90;;;;;;4991620;28;20045;-69
2022/11/22 08:17:32;;;;;;;35.25;5.35;;;15.70;99.90;;;;;;4991795;28;20413;-67
2022/11/22 08:20:36;;;;;;;36.38;5.63;;;15.70;99.90;;;;;;4991637;28;20041;-68
2022/11/22 08:23:44;;;;;;;39.25;6.45;;;15.80;99.90;;;;;;4991946;28;20053;-68
2022/11/22 08:26:48;;;;;;;33.20;5.88;;;15.80;99.90;;;;;;4991914;28;20045;-71
2022/11/22 08:29:52;;;;;;;32.78;5.10;;;15.80;99.90;;;;;;4990728;28;20406;-70
2022/11/22 08:32:56;;;;;;;22.02;4.35;;;15.80;99.90;;;;;;4991724;28;20049;-69
2022/11/22 08:36:00;;;;;;;40.88;6.53;;;15.70;99.90;;;;;;4991918;28;20405;-69
2022/11/22 08:39:04;;;;;;;48.08;7.35;;;15.70;99.90;;;;;;4991688;28;20049;-69
2022/11/22 08:42:08;;;;;;;36.72;5.35;;;15.60;99.90;;;;;;4991670;28;20386;-70
2022/11/22 08:45:11;;;;;;;43.72;5.25;;;15.60;99.90;;;;;;4991825;28;20536;-71
2022/11/22 08:48:16;;;;;;;47.03;6.65;;;15.50;99.90;;;;;;4992027;28;20057;-68
2022/11/22 08:51:20;;;;;;;46.50;6.93;;;15.50;99.90;;;;;;4991596;28;20046;-70
2022/11/22 08:54:24;;;;;;;50.85;5.93;;;15.60;99.90;;;;;;4991465;28;20417;-70
2022/11/22 08:57:27;;;;;;;34.72;3.97;;;15.60;99.90;;;;;;5001896;28;20422;-68
2022/11/22 09:00:32;;;;;;;31.92;3.95;;;15.50;99.90;;;;;;4991861;28;20049;-68
2022/11/22 09:03:37;;;;;;;23.90;3.35;;;15.50;99.90;;;;;;4991603;28;20058;-68
2022/11/22 09:06:41;;;;;;;26.05;3.65;;;15.40;99.90;;;;;;4991741;28;20053;-69
2022/11/22 09:09:44;;;;;;;20.48;3.22;;;15.30;99.90;;;;;;4991488;28;20057;-68
2022/11/22 09:12:48;;;;;;;15.23;2.10;;;15.30;99.90;;;;;;4991298;28;20505;-69
2022/11/22 09:15:52;;;;;;;18.98;1.88;;;15.20;99.90;;;;;;4991552;28;20053;-69
2022/11/22 09:18:56;;;;;;;13.02;2.08;;;15.30;99.90;;;;;;4991698;28;20073;-68
2022/11/22 09:22:00;;;;;;;23.67;3.05;;;15.30;99.90;;;;;;4991048;28;20045;-70
2022/11/22 09:25:05;;;;;;;15.68;2.28;;;15.30;99.90;;;;;;4992960;28;20053;-67
2022/11/22 09:28:09;;;;;;;9.20;2.00;;;15.30;99.90;;;;;;4995588;28;20469;-67
2022/11/22 09:31:17;;;;;;;9.23;1.73;;;15.30;99.90;;;;;;4995011;28;20065;-67
2022/11/22 09:34:21;;;;;;;2.90;0.80;;;15.30;99.90;;;;;;4995142;28;20049;-69
2022/11/22 09:37:26;;;;;;;5.53;1.15;;;15.40;99.90;;;;;;4995334;28;20058;-67
2022/11/22 09:40:31;;;;;;;4.50;1.15;;;15.40;99.50;;;;;;4994053;28;20057;-68
2022/11/22 09:44:26;;;;;;;6.72;1.00;;;15.50;99.60;;;;;;4995189;28;20061;-67
2022/11/22 09:47:51;;;;;;;18.98;3.28;;;15.70;99.90;;;;;;4984565;28;20093;-67
2022/11/22 09:51:14;;;;;;;17.52;3.13;;;15.80;99.90;;;;;;4995031;28;20045;-68
2022/11/22 09:54:23;;;;;;;25.42;3.67;;;15.80;99.90;;;;;;4994539;28;20045;-66
2022/11/22 09:57:42;;;;;;;29.92;4.28;;;16.00;99.90;;;;;;4994437;28;20057;-72
2022/11/22 10:00:47;;;;;;;37.33;3.60;;;16.00;99.90;;;;;;4994904;28;20049;-69
2022/11/22 10:04:24;;;;;;;24.00;3.33;;;16.10;99.90;;;;;;4995037;28;20406;-68
2022/11/22 10:07:35;;;;;;;18.25;2.65;;;16.00;99.90;;;;;;4991386;28;20049;-69
2022/11/22 10:10:41;;;;;;;37.17;4.77;;;16.00;99.90;;;;;;5005212;28;20045;-67
2022/11/22 10:13:55;;;;;;;16.77;3.28;;;15.90;99.90;;;;;;4994551;28;20041;-66
2022/11/22 10:17:22;;;;;;;12.00;1.75;;;15.80;99.90;;;;;;4994749;28;20513;-68
2022/11/22 10:20:29;;;;;;;12.82;2.88;;;15.70;99.90;;;;;;4994112;28;20037;-68
2022/11/22 10:23:33;;;;;;;16.50;2.92;;;15.40;99.90;;;;;;4994399;28;20049;-66
2022/11/22 10:26:38;;;;;;;22.00;3.72;;;15.30;99.90;;;;;;4994256;28;20045;-68
2022/11/22 10:29:42;;;;;;;15.07;2.53;;;15.20;99.90;;;;;;4993915;28;20049;-68
2022/11/22 10:33:08;;;;;;;19.13;3.50;;;15.10;99.90;;;;;;4994288;28;20065;-66
2022/11/22 10:36:37;;;;;;;21.02;3.97;;;15.10;99.90;;;;;;4993592;28;20041;-67
2022/11/22 10:39:57;;;;;;;18.98;2.53;;;15.10;99.90;;;;;;5004474;28;20041;-66
2022/11/22 10:43:19;;;;;;;23.27;3.03;;;15.00;99.90;;;;;;4993745;28;20054;-65
2022/11/22 10:46:34;;;;;;;17.30;3.40;;;15.00;99.90;;;;;;4994141;28;20037;-68
2022/11/22 10:49:42;;;;;;;27.58;4.65;;;15.00;99.90;;;;;;4993747;28;20193;-67
2022/11/22 10:53:05;;;;;;;15.70;3.45;;;15.00;99.90;;;;;;4993604;28;20049;-68
2022/11/22 10:56:20;;;;;;;24.23;4.38;;;15.00;99.90;;;;;;4993862;28;20057;-67
2022/11/22 10:59:45;;;;;;;23.20;3.95;;;15.00;99.90;;;;;;4993277;28;20525;-67
2022/11/22 11:03:24;;;;;;;22.45;2.88;;;15.00;99.90;;;;;;4993685;28;20111;-67
2022/11/22 11:06:34;;;;;;;24.05;2.90;;;15.00;99.90;;;;;;4993698;28;20149;-69
2022/11/22 11:09:42;;;;;;;17.08;3.25;;;15.00;99.90;;;;;;4981820;28;20050;-68
2022/11/22 11:13:01;;;;;;;19.60;4.22;;;15.00;99.90;;;;;;4993707;28;20386;-69
2022/11/22 11:16:11;;;;;;;19.05;3.72;;;15.10;99.90;;;;;;4993718;28;20053;-68
2022/11/22 11:19:18;;;;;;;15.80;3.78;;;15.10;99.90;;;;;;4993434;28;20061;-67
2022/11/22 11:22:24;;;;;;;17.75;3.00;;;15.10;99.90;;;;;;4992559;28;20057;-67
2022/11/22 11:25:39;;;;;;;17.83;3.28;;;15.10;99.90;;;;;;4993439;28;20406;-67
2022/11/22 11:28:43;;;;;;;20.77;3.03;;;15.10;99.90;;;;;;4993186;28;20209;-68
2022/11/22 11:31:49;;;;;;;16.55;3.28;;;15.20;99.90;;;;;;4992921;28;20510;-68
2022/11/22 11:35:00;;;;;;;21.15;3.47;;;15.30;99.90;;;;;;4992826;28;20125;-67
2022/11/22 11:38:27;;;;;;;19.60;2.90;;;15.40;99.90;;;;;;4992959;28;20061;-68
2022/11/22 11:41:33;;;;;;;17.80;4.32;;;15.40;99.90;;;;;;5003020;28;20057;-69
2022/11/22 11:44:37;;;;;;;22.85;3.53;;;15.40;99.90;;;;;;4993008;28;20049;-69
2022/11/22 11:47:43;;;;;;;22.67;3.70;;;15.50;99.90;;;;;;4991667;28;20045;-68
2022/11/22 11:50:47;;;;;;;26.13;4.75;;;15.40;99.90;;;;;;4992796;28;20065;-68
2022/11/22 11:53:57;;;;;;;31.58;6.05;;;15.40;99.90;;;;;;4992677;28;20046;-70
2022/11/22 11:57:04;;;;;;;27.98;4.88;;;15.20;99.90;;;;;;4992310;28;20520;-72
2022/11/22 12:00:20;;;;;;;24.45;5.80;;;15.20;99.90;;;;;;4992854;28;20045;-70
2022/11/22 12:03:25;;;;;;;29.38;4.93;;;15.10;99.90;;;;;;4992225;28;20045;-70
2022/11/22 12:06:30;;;;;;;36.08;5.72;;;15.10;99.90;;;;;;4992714;28;20050;-72
2022/11/22 12:09:42;;;;;;;33.53;6.50;;;15.10;99.90;;;;;;4990840;28;20049;-71
2022/11/22 12:12:51;;;;;;;35.85;6.95;;;15.10;99.90;;;;;;5001006;28;20410;-70
2022/11/22 12:16:25;;;;;;;33.25;6.90;;;15.10;99.90;;;;;;4991893;28;20537;-70
2022/11/22 12:19:53;;;;;;;37.22;7.10;;;15.20;99.90;;;;;;4991327;28;20065;-71
2022/11/22 12:23:15;;;;;;;33.33;6.85;;;15.20;99.90;;;;;;4992459;28;20054;-70
2022/11/22 12:26:19;;;;;;;53.88;9.13;;;15.30;99.90;;;;;;4991888;28;20041;-72
2022/11/22 12:29:23;;;;;;;37.35;5.88;;;15.30;99.90;;;;;;4992406;28;20061;-70
2022/11/22 12:32:36;;;;;;;31.33;5.93;;;15.30;99.90;;;;;;4992344;28;20057;-71
2022/11/22 12:35:45;;;;;;;48.25;7.03;;;15.40;99.90;;;;;;4992595;28;20037;-69
2022/11/22 12:38:50;;;;;;;42.63;6.13;;;15.40;99.90;;;;;;4992048;28;20061;-69
2022/11/22 12:42:07;;;;;;;49.28;7.85;;;15.40;99.90;;;;;;4992388;28;20045;-69
2022/11/22 12:45:22;;;;;;;45.67;7.35;;;15.40;99.90;;;;;;4992125;28;20544;-70
2022/11/22 12:48:39;;;;;;;49.08;8.00;;;15.50;99.90;;;;;;4992449;28;20379;-68
2022/11/22 12:51:56;;;;;;;41.95;7.47;;;15.60;99.90;;;;;;4992187;28;20045;-70
2022/11/22 12:55:03;;;;;;;29.15;5.85;;;15.50;99.90;;;;;;4992195;28;20049;-71
2022/11/22 12:58:32;;;;;;;54.70;7.30;;;15.50;99.90;;;;;;4991894;28;20073;-70
2022/11/22 13:02:13;;;;;;;47.45;6.57;;;15.50;99.90;;;;;;4995185;28;20053;-69
2022/11/22 13:05:25;;;;;;;36.17;6.22;;;15.60;99.90;;;;;;5006717;28;20387;-71
2022/11/22 13:08:42;;;;;;;36.38;6.28;;;15.70;99.90;;;;;;4996200;28;20100;-70
2022/11/22 13:12:05;;;;;;;51.97;7.97;;;15.80;99.90;;;;;;4995598;28;20104;-68
2022/11/22 13:15:24;;;;;;;42.22;7.07;;;15.80;99.90;;;;;;4996053;28;20045;-71
2022/11/22 13:18:35;;;;;;;38.10;5.95;;;15.80;99.90;;;;;;4996024;28;20129;-71
2022/11/22 13:22:09;;;;;;;52.70;8.55;;;15.90;99.90;;;;;;4996140;28;20049;-68
2022/11/22 13:25:36;;;;;;;53.20;7.28;;;15.90;99.90;;;;;;4994709;28;20041;-69
2022/11/22 13:28:41;;;;;;;45.65;6.63;;;15.90;99.90;;;;;;4996513;28;20049;-70
2022/11/22 13:32:10;;;;;;;50.70;7.43;;;15.90;99.90;;;;;;4995466;28;20045;-71
2022/11/22 13:35:14;;;;;;;43.80;6.97;;;15.90;99.90;;;;;;4996784;28;20053;-72
2022/11/22 13:38:21;;;;;;;45.88;6.70;;;15.90;99.90;;;;;;4996382;28;20053;-72
2022/11/22 13:41:36;;;;;;;43.47;8.25;;;16.00;99.90;;;;;;5007538;28;20042;-71
2022/11/22 13:44:56;;;;;;;41.10;7.53;;;15.90;99.60;;;;;;4997108;28;20041;-71
2022/11/22 13:48:00;;;;;;;47.20;6.90;;;15.90;99.10;;;;;;4996718;28;20251;-71
2022/11/22 13:51:05;;;;;;;47.80;6.97;;;16.00;99.00;;;;;;4995967;28;20277;-71
2022/11/22 13:54:31;;;;;;;40.67;6.72;;;15.90;98.80;;;;;;4996243;28;20053;-72
2022/11/22 13:57:38;;;;;;;37.50;5.93;;;15.90;98.30;;;;;;4995936;28;20362;-71
2022/11/22 14:00:42;;;;;;;40.60;6.22;;;15.90;98.40;;;;;;4995145;28;20497;-71
2022/11/22 14:03:46;;;;;;;41.35;7.20;;;15.90;98.30;;;;;;4994376;28;20069;-70
2022/11/22 14:07:20;;;;;;;32.60;6.28;;;15.90;98.60;;;;;;4995771;28;20049;-72
2022/11/22 14:10:27;;;;;;;41.53;6.07;;;16.00;98.70;;;;;;5005308;28;20050;-72
2022/11/22 14:14:10;;;;;;;27.80;5.47;;;15.90;98.60;;;;;;4996235;28;20058;-72
2022/11/22 14:17:20;;;;;;;30.48;5.60;;;15.90;99.70;;;;;;4973067;28;20115;-70
2022/11/22 14:20:53;;;;;;;28.17;5.10;;;15.90;99.90;;;;;;4973919;28;20053;-72
2022/11/22 14:24:29;;;;;;;40.70;5.95;;;15.80;99.90;;;;;;4997135;28;20041;-72
2022/11/22 14:27:42;;;;;;;36.70;6.15;;;15.60;99.90;;;;;;4981489;28;20045;-71
2022/11/22 14:30:50;;;;;;;31.45;4.82;;;15.60;99.90;;;;;;4994297;28;20053;-69
2022/11/22 14:34:14;;;;;;;36.30;6.18;;;15.50;99.90;;;;;;4994239;28;20053;-69
2022/11/22 14:37:18;;;;;;;36.38;6.03;;;15.30;99.90;;;;;;5004979;28;20402;-70
2022/11/22 14:40:28;;;;;;;32.50;4.93;;;15.00;99.90;;;;;;4993625;28;20037;-69
2022/11/22 14:43:36;;;;;;;31.55;6.72;;;15.30;99.90;;;;;;4994728;28;20053;-71
2022/11/22 14:47:03;;;;;;;22.95;4.65;;;15.20;99.90;;;;;;4994663;28;20085;-71
2022/11/22 14:50:21;;;;;;;28.30;4.60;;;15.20;99.90;;;;;;4994491;28;20049;-71
2022/11/22 14:53:49;;;;;;;31.02;5.95;;;15.20;99.90;;;;;;4993938;28;20057;-69
2022/11/22 14:56:58;;;;;;;32.63;5.55;;;15.20;99.90;;;;;;4993607;28;20586;-69
2022/11/22 15:00:34;;;;;;;30.80;5.38;;;15.10;99.90;;;;;;4993976;28;20061;-70
2022/11/22 15:04:00;;;;;;;26.38;4.40;;;15.10;99.90;;;;;;4985421;28;20510;-70
2022/11/22 15:07:41;;;;;;;24.77;5.97;;;15.10;99.90;;;;;;4994053;28;20045;-71
2022/11/22 15:11:24;;;;;;;27.10;4.90;;;15.00;99.90;;;;;;4994161;28;20490;-70
2022/11/22 15:14:59;;;;;;;29.77;5.03;;;14.90;99.90;;;;;;4994387;28;20497;-69
2022/11/22 15:18:20;;;;;;;24.45;4.30;;;14.90;99.90;;;;;;4993479;28;20053;-69
2022/11/22 15:21:25;;;;;;;;;;;14.80;99.90;;;;;;4993942;28;20045;-70
2022/11/22 15:24:30;;;;;;;30.98;6.32;;;15.00;99.90;;;;;;4991532;28;19909;-70
2022/11/22 15:27:47;;;;;;;23.33;5.57;;;14.80;99.90;;;;;;4991940;28;20054;-69
2022/11/22 15:30:55;;;;;;;29.25;4.78;;;14.70;99.90;;;;;;4992706;28;20061;-71
2022/11/22 15:33:59;;;;;;;25.02;5.50;;;14.70;99.90;;;;;;4992006;28;20049;-67
2022/11/22 15:37:25;;;;;;;37.67;8.25;;;14.70;99.90;;;;;;4993331;28;20100;-65
2022/11/22 15:40:35;;;;;;;43.72;9.38;;;14.70;99.90;;;;;;5003217;28;20049;-66
2022/11/22 15:43:40;;;;;;;36.17;7.28;;;14.70;99.90;;;;;;4992867;28;20049;-67
2022/11/22 15:46:45;;;;;;;48.00;7.93;;;14.70;99.90;;;;;;4992537;28;20045;-70
2022/11/22 15:49:49;;;;;;;43.45;6.97;;;14.70;99.90;;;;;;4992896;28;20650;-67
2022/11/22 15:53:04;;;;;;;40.65;7.53;;;14.70;99.90;;;;;;4992002;28;20053;-67
2022/11/22 15:56:15;;;;;;;52.88;9.00;;;14.70;99.90;;;;;;4992691;28;20505;-67
2022/11/22 15:59:24;;;;;;;40.85;7.53;;;14.70;99.90;;;;;;4992420;28;20521;-67
2022/11/22 16:02:29;;;;;;;45.55;6.57;;;14.70;99.90;;;;;;4991690;28;20038;-68
2022/11/22 16:05:36;;;;;;;40.97;6.65;;;14.70;99.90;;;;;;4992892;28;20061;-69
2022/11/22 16:08:48;;;;;;;39.75;5.25;;;14.80;99.90;;;;;;4992082;28;20092;-70
2022/11/22 16:12:00;;;;;;;32.92;6.20;;;14.80;99.90;;;;;;4991834;28;20034;-69
2022/11/22 16:15:25;;;;;;;39.88;4.78;;;14.90;99.90;;;;;;4992801;28;20051;-69
2022/11/22 16:18:30;;;;;;;31.55;5.95;;;14.90;99.90;;;;;;4992180;28;20050;-68
2022/11/22 16:21:34;;;;;;;25.85;5.00;;;14.80;99.90;;;;;;4992015;28;20049;-67
2022/11/22 16:24:38;;;;;;;21.23;5.05;;;14.80;99.90;;;;;;4991721;28;20073;-67
2022/11/22 16:27:46;;;;;;;22.33;4.70;;;14.80;99.90;;;;;;4991836;28;20065;-67
2022/11/22 16:30:55;;;;;;;35.30;4.55;;;14.70;99.90;;;;;;4991901;28;20065;-69